Time;durP1;ratioP1;P1;durP2;ratioP2;P2;SDS_P1;SDS_P2;PMS_P1;PMS_P2;Temp;Humidity;BMP_temperature;BMP_pressure;BME280_temperature;BME280_humidity;BME280_pressure;Samples;Min_cycle;Max_cycle;Signal;HPM_P1;HPM_P2
2021/03/27 00:01:26;;;;;;;29.65;18.73;;;;;;;6.73;68.54;100338.80;1738887;82;21124;-64
2021/03/27 00:04:05;;;;;;;28.55;18.50;;;;;;;6.72;68.58;100334.99;1749177;82;21077;-64
2021/03/27 00:06:53;;;;;;;30.43;19.35;;;;;;;6.71;68.65;100337.39;1746582;82;21191;-61
2021/03/27 00:09:32;;;;;;;27.52;18.27;;;;;;;6.70;68.66;100339.74;1720666;83;21127;-62
2021/03/27 00:12:07;;;;;;;22.20;17.62;;;;;;;6.69;68.75;100332.75;1723974;82;21415;-63
2021/03/27 00:14:58;;;;;;;23.67;17.95;;;;;;;6.67;68.79;100340.97;1721150;82;22076;-62
2021/03/27 00:17:49;;;;;;;26.33;20.80;;;;;;;6.68;68.77;100332.44;1723143;82;21103;-61
2021/03/27 00:20:31;;;;;;;27.00;20.60;;;;;;;6.66;68.78;100331.33;1728395;81;21612;-66
2021/03/27 00:23:07;;;;;;;25.60;19.60;;;;;;;6.65;68.83;100328.34;1709855;83;21185;-60
2021/03/27 00:25:41;;;;;;;22.70;17.07;;;;;;;6.64;68.88;100333.38;1730097;82;21042;-65
2021/03/27 00:28:28;;;;;;;25.43;18.05;;;;;;;6.65;68.90;100324.33;1730291;83;21102;-65
2021/03/27 00:31:16;;;;;;;27.15;18.40;;;;;;;6.69;68.81;100328.23;1727368;83;21059;-67
2021/03/27 00:33:58;;;;;;;27.87;17.57;;;;;;;6.79;68.62;100323.78;1835000;76;25194;-64
2021/03/27 00:36:37;;;;;;;23.38;16.95;;;;;;;6.78;68.46;100332.83;1833658;77;21039;-65
2021/03/27 00:39:27;;;;;;;30.20;19.10;;;;;;;6.78;68.31;100327.48;1827038;77;21277;-64
2021/03/27 00:42:05;;;;;;;22.98;18.35;;;;;;;6.80;68.29;100332.12;1802703;77;20991;-65
2021/03/27 00:44:38;;;;;;;26.62;19.75;;;;;;;6.79;68.21;100332.63;1798243;77;21047;-65
2021/03/27 00:47:07;;;;;;;26.37;18.60;;;;;;;6.78;68.13;100327.48;1778486;79;21069;-65
2021/03/27 00:49:40;;;;;;;26.15;18.15;;;;;;;6.78;68.14;100328.30;1798626;79;21010;-69
2021/03/27 00:52:10;;;;;;;28.73;18.85;;;;;;;6.79;68.13;100337.16;1829186;77;21466;-64
2021/03/27 00:54:46;;;;;;;24.40;15.75;;;;;;;6.77;68.12;100338.69;1780946;80;20999;-65
2021/03/27 00:57:27;;;;;;;26.40;18.60;;;;;;;6.76;68.13;100327.68;1750760;80;21646;-64
2021/03/27 01:00:18;;;;;;;28.87;18.98;;;;;;;6.76;68.17;100331.69;1780913;80;21058;-63
2021/03/27 01:03:14;;;;;;;27.85;17.57;;;;;;;6.75;68.17;100331.41;1757874;80;21154;-63
2021/03/27 01:06:01;;;;;;;24.77;17.80;;;;;;;6.72;68.30;100329.64;1717205;82;21285;-65
2021/03/27 01:08:45;;;;;;;26.87;19.23;;;;;;;6.72;68.31;100333.66;1726345;82;21039;-62
2021/03/27 01:11:38;;;;;;;26.50;18.85;;;;;;;6.70;68.33;100331.21;1718779;82;21020;-62
2021/03/27 01:14:11;;;;;;;25.23;18.50;;;;;;;6.68;68.39;100329.25;1702547;84;21659;-62
2021/03/27 01:16:45;;;;;;;23.42;15.68;;;;;;;6.68;68.49;100337.78;1702814;84;21193;-63
2021/03/27 01:19:19;;;;;;;21.87;16.12;;;;;;;6.67;68.56;100325.44;1710881;81;21163;-62
2021/03/27 01:21:48;;;;;;;22.40;16.95;;;;;;;6.66;68.63;100331.84;1734281;82;21188;-62
2021/03/27 01:24:16;;;;;;;23.45;16.55;;;;;;;6.62;68.72;100330.08;1728716;82;21169;-60
2021/03/27 01:26:50;;;;;;;24.43;16.60;;;;;;;6.60;68.78;100333.49;1725440;82;21236;-62
2021/03/27 01:29:32;;;;;;;27.52;18.37;;;;;;;6.57;68.97;100336.05;1705140;84;21146;-61
2021/03/27 01:32:14;;;;;;;30.37;20.20;;;;;;;6.61;68.97;100332.47;1736625;81;21369;-61
2021/03/27 01:35:04;;;;;;;23.73;17.20;;;;;;;6.66;68.92;100331.84;1727939;81;21156;-60
2021/03/27 01:37:56;;;;;;;22.95;17.10;;;;;;;6.71;68.75;100330.19;1705438;81;21073;-63
2021/03/27 01:40:59;;;;;;;25.37;18.07;;;;;;;6.74;68.62;100329.76;1704942;84;21153;-62
2021/03/27 01:43:37;;;;;;;26.85;18.52;;;;;;;6.75;68.57;100330.07;1705670;82;21255;-60
2021/03/27 01:46:36;;;;;;;24.47;17.60;;;;;;;6.75;68.52;100330.07;1704745;84;22371;-61
2021/03/27 01:49:27;;;;;;;25.88;18.95;;;;;;;6.75;68.53;100330.07;1700574;81;21173;-62
2021/03/27 01:52:39;;;;;;;23.65;17.48;;;;;;;6.74;68.54;100331.09;1724014;81;21630;-62
2021/03/27 01:55:28;;;;;;;23.77;17.12;;;;;;;6.74;68.58;100330.27;1764890;81;21030;-64
2021/03/27 01:58:27;;;;;;;24.98;17.82;;;;;;;6.75;68.61;100333.26;1789068;80;21019;-62
2021/03/27 02:01:10;;;;;;;26.27;18.30;;;;;;;6.74;68.64;100335.11;1796211;79;21209;-60
2021/03/27 02:03:48;;;;;;;25.37;19.02;;;;;;;6.76;68.56;100342.38;1796762;79;21556;-60
2021/03/27 02:06:38;;;;;;;23.87;16.87;;;;;;;6.77;68.50;100341.87;1794963;79;20979;-61
2021/03/27 02:09:35;;;;;;;22.27;14.95;;;;;;;6.78;68.42;100343.01;1784578;80;21152;-60
2021/03/27 02:12:12;;;;;;;22.02;16.37;;;;;;;6.78;68.44;100339.00;1759072;81;21647;-59
2021/03/27 02:14:57;;;;;;;20.95;15.15;;;;;;;6.78;68.44;100338.17;1740694;80;21560;-61
2021/03/27 02:17:50;;;;;;;29.60;20.23;;;;;;;6.77;68.49;100333.34;1759721;80;21035;-61
2021/03/27 02:20:40;;;;;;;25.43;16.65;;;;;;;6.78;68.43;100344.86;1787704;80;20963;-59
2021/03/27 02:23:40;;;;;;;23.38;16.30;;;;;;;6.78;68.44;100345.69;1787499;80;21164;-60
2021/03/27 02:26:46;;;;;;;25.30;17.10;;;;;;;6.77;68.42;100344.55;1762043;81;21125;-61
2021/03/27 02:29:38;;;;;;;24.57;16.65;;;;;;;6.74;68.50;100352.48;1773376;80;21207;-61
2021/03/27 02:32:34;;;;;;;23.52;16.77;;;;;;;6.72;68.54;100349.69;1757547;81;21719;-61
2021/03/27 02:35:17;;;;;;;22.07;17.35;;;;;;;6.68;68.60;100347.96;1793377;80;21113;-59
2021/03/27 02:38:18;;;;;;;27.43;18.70;;;;;;;6.71;68.76;100346.73;1889092;76;23228;-60
2021/03/27 02:41:19;;;;;;;22.17;15.93;;;;;;;6.63;68.80;100349.09;1860048;77;20982;-61
2021/03/27 02:43:52;;;;;;;23.73;18.23;;;;;;;6.65;68.82;100348.90;1859962;77;21575;-61
2021/03/27 02:46:45;;;;;;;26.55;17.00;;;;;;;6.66;68.79;100352.71;1827007;77;20983;-60
2021/03/27 02:49:35;;;;;;;25.10;17.62;;;;;;;6.67;68.77;100354.84;1858282;77;21022;-60
2021/03/27 02:52:17;;;;;;;24.15;16.60;;;;;;;6.63;68.76;100349.09;1823487;77;21585;-60
2021/03/27 02:55:25;;;;;;;23.22;18.07;;;;;;;6.62;68.82;100354.67;1859054;76;21575;-60
2021/03/27 02:58:27;;;;;;;21.30;16.00;;;;;;;6.60;68.86;100350.03;1826285;78;21351;-61
2021/03/27 03:01:19;;;;;;;22.95;15.53;;;;;;;6.57;68.89;100357.42;1850476;77;21019;-61
2021/03/27 03:04:01;;;;;;;26.73;18.37;;;;;;;6.53;68.97;100353.53;1847459;77;20995;-60
2021/03/27 03:07:02;;;;;;;23.98;16.57;;;;;;;6.49;69.09;100353.64;1849487;77;21110;-60
2021/03/27 03:09:47;;;;;;;25.95;17.62;;;;;;;6.46;69.24;100357.25;1821245;78;21070;-60
2021/03/27 03:12:40;;;;;;;25.92;17.02;;;;;;;6.40;69.43;100358.06;1820014;78;21378;-60
2021/03/27 03:15:53;;;;;;;24.92;17.12;;;;;;;6.36;69.58;100352.83;1819776;78;21040;-60
2021/03/27 03:18:53;;;;;;;26.35;17.62;;;;;;;6.31;69.81;100351.29;1819785;78;20979;-60
2021/03/27 03:21:54;;;;;;;23.98;17.73;;;;;;;6.29;69.97;100358.16;1820753;78;22336;-61
2021/03/27 03:24:36;;;;;;;27.60;18.98;;;;;;;6.31;70.09;100360.13;1821011;77;21119;-61
2021/03/27 03:27:31;;;;;;;24.47;17.35;;;;;;;6.31;70.14;100361.98;1822569;78;21348;-59
2021/03/27 03:30:27;;;;;;;26.75;17.73;;;;;;;6.30;70.01;100360.33;1822279;78;21003;-59
2021/03/27 03:33:20;;;;;;;25.00;18.32;;;;;;;6.26;70.33;100357.77;1804477;78;21038;-60
2021/03/27 03:36:02;;;;;;;26.45;19.82;;;;;;;6.26;70.33;100357.77;1819709;78;21203;-60
2021/03/27 03:38:50;;;;;;;20.55;16.37;;;;;;;6.24;70.35;100362.47;1806416;78;21129;-60
2021/03/27 03:41:42;;;;;;;28.23;18.82;;;;;;;6.20;70.50;100366.08;1819982;78;21382;-59
2021/03/27 03:44:35;;;;;;;28.80;19.70;;;;;;;6.13;70.70;100362.09;1773669;77;21169;-62
2021/03/27 03:47:32;;;;;;;23.67;18.17;;;;;;;6.10;70.84;100362.47;1783031;80;21081;-60
2021/03/27 03:50:13;;;;;;;29.07;17.92;;;;;;;6.01;71.33;100366.88;1786070;80;21579;-60
2021/03/27 03:53:22;;;;;;;26.37;17.95;;;;;;;6.01;71.33;100366.88;1780202;80;21181;-60
2021/03/27 03:56:08;;;;;;;32.50;20.57;;;;;;;6.01;71.46;100370.38;1761530;81;21377;-60
2021/03/27 03:58:50;;;;;;;28.98;19.80;;;;;;;6.01;71.46;100370.38;1761556;81;21177;-61
2021/03/27 04:01:44;;;;;;;28.32;19.12;;;;;;;6.02;71.47;100369.36;1761656;81;21042;-59
2021/03/27 04:04:26;;;;;;;29.57;18.42;;;;;;;6.04;71.42;100378.51;1764783;80;21063;-59
2021/03/27 04:07:03;;;;;;;25.88;18.62;;;;;;;6.01;71.58;100379.72;1761666;81;21114;-60
2021/03/27 04:10:00;;;;;;;27.00;19.77;;;;;;;6.01;71.58;100379.72;1761662;81;21203;-61
2021/03/27 04:12:37;;;;;;;21.55;15.85;;;;;;;5.99;71.57;100379.63;1742899;81;21188;-61
2021/03/27 04:15:36;;;;;;;29.63;20.17;;;;;;;5.96;71.66;100383.51;1774143;80;21063;-60
2021/03/27 04:18:25;;;;;;;24.70;17.67;;;;;;;5.93;71.75;100381.25;1761559;80;21592;-62
2021/03/27 04:21:02;;;;;;;28.40;20.20;;;;;;;5.89;71.87;100384.02;1761513;81;21129;-61
2021/03/27 04:23:46;;;;;;;25.10;18.85;;;;;;;5.87;71.93;100382.06;1761447;80;21884;-61
2021/03/27 04:26:25;;;;;;;30.17;21.33;;;;;;;5.88;72.00;100386.37;1761308;81;21107;-62
2021/03/27 04:29:29;;;;;;;27.70;19.65;;;;;;;5.92;71.97;100392.95;1761494;81;21099;-60
2021/03/27 04:32:23;;;;;;;27.95;18.80;;;;;;;5.94;71.91;100390.92;1762113;80;21606;-61
2021/03/27 04:35:23;;;;;;;31.33;19.90;;;;;;;5.95;71.80;100384.53;1761475;80;21625;-59
2021/03/27 04:38:32;;;;;;;28.57;19.10;;;;;;;5.95;71.79;100393.88;1761431;81;22141;-60
2021/03/27 04:41:32;;;;;;;25.48;17.80;;;;;;;5.96;71.72;100394.70;1772892;80;21177;-59
2021/03/27 04:44:17;;;;;;;26.80;18.60;;;;;;;5.94;71.71;100395.44;1763147;80;21567;-59
2021/03/27 04:46:52;;;;;;;26.70;18.92;;;;;;;5.93;71.71;100391.11;1761578;81;21189;-60
2021/03/27 04:49:42;;;;;;;28.92;19.85;;;;;;;5.92;71.72;100389.46;1761709;81;21564;-60
2021/03/27 04:52:33;;;;;;;34.83;21.55;;;;;;;5.92;71.71;100393.46;1768818;80;22230;-59
2021/03/27 04:55:22;;;;;;;23.73;16.97;;;;;;;5.94;71.71;100398.93;1786734;80;20952;-58
2021/03/27 04:58:26;;;;;;;29.18;17.57;;;;;;;6.00;71.62;100402.09;1783109;80;20984;-62
2021/03/27 05:01:22;;;;;;;26.65;19.05;;;;;;;6.04;71.44;100400.66;1786753;80;21173;-60
2021/03/27 05:03:58;;;;;;;25.88;18.73;;;;;;;6.07;71.30;100411.47;1785115;80;21173;-58
2021/03/27 05:06:37;;;;;;;20.68;16.30;;;;;;;6.06;71.18;100403.97;1761608;80;21205;-60
2021/03/27 05:09:30;;;;;;;24.10;16.15;;;;;;;6.10;71.05;100410.55;1761301;80;21152;-63
2021/03/27 05:12:20;;;;;;;23.10;17.23;;;;;;;6.13;70.90;100412.83;1791343;80;20990;-61
2021/03/27 05:15:09;;;;;;;27.15;19.20;;;;;;;6.20;70.71;100408.81;1792916;80;21176;-59
2021/03/27 05:17:50;;;;;;;24.07;16.48;;;;;;;6.20;70.71;100408.81;1792911;80;21109;-59
2021/03/27 05:20:35;;;;;;;21.65;14.73;;;;;;;6.25;70.67;100409.53;1789157;80;21287;-60
2021/03/27 05:23:37;;;;;;;23.98;17.30;;;;;;;6.28;70.38;100415.31;1761433;81;21042;-60
2021/03/27 05:26:13;;;;;;;24.32;17.17;;;;;;;6.35;70.19;100418.80;1714141;81;21614;-61
2021/03/27 05:29:13;;;;;;;22.50;17.30;;;;;;;6.45;69.83;100421.06;1760890;81;21185;-61
2021/03/27 05:31:54;;;;;;;22.70;17.48;;;;;;;6.62;69.25;100410.26;1773938;80;21137;-62
2021/03/27 05:34:45;;;;;;;27.27;17.90;;;;;;;6.62;69.25;100410.26;1766375;80;21397;-61
2021/03/27 05:37:58;;;;;;;26.27;16.97;;;;;;;6.72;68.88;100412.52;1788054;80;21170;-60
2021/03/27 05:40:54;;;;;;;24.87;16.80;;;;;;;6.78;68.55;100417.04;1755190;81;21144;-61
2021/03/27 05:44:05;;;;;;;25.08;16.30;;;;;;;6.84;68.27;100419.72;1761580;80;21189;-60
2021/03/27 05:47:13;;;;;;;19.95;15.72;;;;;;;6.92;68.07;100429.36;1764060;80;21102;-62
2021/03/27 05:50:22;;;;;;;21.62;15.58;;;;;;;6.96;67.71;100422.05;1753270;81;22117;-60
2021/03/27 05:53:16;;;;;;;22.07;15.32;;;;;;;7.02;67.41;100427.09;1767459;81;21133;-60
2021/03/27 05:56:43;;;;;;;25.70;14.80;;;;;;;7.09;67.37;100429.77;1799548;79;21165;-62
2021/03/27 05:59:51;;;;;;;22.30;14.25;;;;;;;7.18;66.80;100428.50;1722257;82;21173;-60
2021/03/27 06:03:07;;;;;;;28.32;17.30;;;;;;;7.23;66.68;100430.03;1727506;82;21670;-60
2021/03/27 06:06:02;;;;;;;23.27;15.83;;;;;;;7.23;66.68;100430.03;1733515;80;21165;-63
2021/03/27 06:08:52;;;;;;;20.27;14.73;;;;;;;7.30;66.46;100438.34;1773517;80;21217;-62
2021/03/27 06:11:57;;;;;;;19.92;15.53;;;;;;;7.36;66.26;100435.34;1776541;79;21197;-62
2021/03/27 06:14:52;;;;;;;21.25;15.70;;;;;;;7.41;66.06;100432.86;1792807;80;21105;-60
2021/03/27 06:18:19;;;;;;;25.08;17.02;;;;;;;7.47;65.81;100434.70;1792664;80;21112;-61
2021/03/27 06:21:13;;;;;;;24.87;16.30;;;;;;;7.53;65.75;100434.38;1811664;77;21281;-61
2021/03/27 06:23:58;;;;;;;23.85;16.45;;;;;;;7.62;65.53;100430.42;1765896;81;21150;-63
2021/03/27 06:26:55;;;;;;;23.92;15.90;;;;;;;7.69;65.32;100428.52;1740281;80;21268;-62
2021/03/27 06:29:46;;;;;;;24.23;16.40;;;;;;;7.75;65.17;100432.52;1745251;81;21158;-64
2021/03/27 06:33:03;;;;;;;27.87;20.50;;;;;;;7.82;65.00;100435.97;1709415;82;21144;-61
2021/03/27 06:36:04;;;;;;;30.82;19.60;;;;;;;7.88;64.60;100438.31;1712321;82;21370;-62
2021/03/27 06:38:56;;;;;;;26.20;18.40;;;;;;;7.96;64.45;100437.27;1731130;81;21607;-63
2021/03/27 06:42:05;;;;;;;25.32;18.73;;;;;;;8.04;64.25;100439.17;1785870;79;21094;-61
2021/03/27 06:45:11;;;;;;;25.65;17.98;;;;;;;8.11;63.86;100440.45;1798078;79;21011;-61
2021/03/27 06:48:05;;;;;;;22.35;16.05;;;;;;;8.18;63.63;100444.75;1798322;79;21539;-61
2021/03/27 06:51:26;;;;;;;21.23;15.78;;;;;;;8.25;63.44;100444.69;1768143;81;21392;-61
2021/03/27 06:54:34;;;;;;;29.15;18.07;;;;;;;8.32;63.22;100446.85;1714891;82;21313;-60
2021/03/27 06:57:20;;;;;;;33.42;20.50;;;;;;;8.39;63.13;100450.84;1710367;82;21678;-62
2021/03/27 07:00:44;;;;;;;22.22;17.90;;;;;;;8.46;63.00;100452.94;1756972;81;21195;-60
2021/03/27 07:03:49;;;;;;;16.50;11.15;;;;;;;8.54;62.94;100456.69;1798480;79;21173;-61
2021/03/27 07:07:14;;;;;;;26.55;18.57;;;;;;;8.63;62.58;100454.86;1794078;79;21383;-62
2021/03/27 07:10:21;;;;;;;22.27;16.15;;;;;;;8.70;62.52;100457.50;1733108;82;21647;-61
2021/03/27 07:13:06;;;;;;;25.57;19.20;;;;;;;8.80;62.21;100463.71;1708135;84;21601;-61
2021/03/27 07:15:55;;;;;;;29.30;20.62;;;;;;;8.85;62.02;100451.29;1791461;79;21576;-62
2021/03/27 07:18:29;;;;;;;25.92;19.45;;;;;;;8.92;61.74;100461.42;1798263;79;21157;-60
2021/03/27 07:21:37;;;;;;;24.10;18.73;;;;;;;8.98;61.68;100464.58;1738224;82;21436;-63
2021/03/27 07:24:40;;;;;;;33.40;20.68;;;;;;;9.06;61.51;100464.31;1738373;82;21606;-63
2021/03/27 07:27:39;;;;;;;26.62;17.20;;;;;;;9.14;61.26;100460.52;1755987;81;21169;-62
2021/03/27 07:30:25;;;;;;;29.63;20.82;;;;;;;9.23;61.02;100458.36;1768006;81;21634;-62
2021/03/27 07:33:02;;;;;;;23.77;17.07;;;;;;;9.30;60.84;100459.12;1768975;81;21129;-64
2021/03/27 07:36:22;;;;;;;27.70;19.15;;;;;;;9.36;60.73;100460.37;1798593;79;21369;-62
2021/03/27 07:39:22;;;;;;;26.00;18.05;;;;;;;9.44;60.50;100462.78;1790899;79;21114;-61
2021/03/27 07:42:18;;;;;;;28.77;20.40;;;;;;;9.54;60.30;100465.74;1799041;79;21130;-61
2021/03/27 07:45:09;;;;;;;26.17;20.12;;;;;;;9.64;60.09;100471.41;1809025;79;21177;-62
2021/03/27 07:47:57;;;;;;;29.57;21.07;;;;;;;9.74;59.90;100468.20;1797162;79;21165;-62
2021/03/27 07:50:42;;;;;;;31.48;22.60;;;;;;;9.84;59.50;100470.36;1810246;79;21651;-62
2021/03/27 07:54:07;;;;;;;30.08;21.07;;;;;;;9.92;59.17;100470.06;1806463;79;21194;-60
2021/03/27 07:57:16;;;;;;;31.60;22.60;;;;;;;10.00;59.05;100470.56;1799080;79;21050;-61
2021/03/27 08:00:12;;;;;;;38.35;23.70;;;;;;;10.14;58.40;100476.58;1799253;79;21568;-62
2021/03/27 08:03:02;;;;;;;35.75;23.47;;;;;;;10.26;57.86;100468.61;1800040;79;21118;-63
2021/03/27 08:06:13;;;;;;;30.95;23.52;;;;;;;10.35;57.54;100467.23;1805572;79;22361;-61
2021/03/27 08:09:16;;;;;;;31.95;22.45;;;;;;;10.45;57.50;100468.29;1784961;80;21202;-62
2021/03/27 08:11:56;;;;;;;26.20;20.27;;;;;;;10.58;57.33;100469.16;1774503;79;21310;-61
2021/03/27 08:14:55;;;;;;;32.17;22.70;;;;;;;10.70;56.97;100460.05;1846075;76;28219;-62
2021/03/27 08:18:08;;;;;;;34.85;22.93;;;;;;;10.72;56.86;100460.64;1785005;80;21121;-63
2021/03/27 08:21:21;;;;;;;29.52;20.27;;;;;;;10.86;56.33;100461.24;1785237;80;21707;-61
2021/03/27 08:24:21;;;;;;;29.40;20.52;;;;;;;10.99;55.28;100456.15;1785675;79;21034;-61
2021/03/27 08:27:28;;;;;;;36.05;24.90;;;;;;;11.09;54.95;100456.39;1808845;79;21023;-64
2021/03/27 08:30:50;;;;;;;37.13;25.85;;;;;;;11.19;54.79;100449.89;1784904;79;21022;-64
2021/03/27 08:33:49;;;;;;;44.13;28.25;;;;;;;11.31;54.74;100458.27;1793771;79;21065;-62
2021/03/27 08:36:42;;;;;;;37.98;27.22;;;;;;;11.42;53.97;100457.12;1817055;78;21245;-62
2021/03/27 08:39:25;;;;;;;36.60;25.45;;;;;;;11.48;53.19;100455.66;1776058;79;20948;-63
2021/03/27 08:42:21;;;;;;;35.85;26.23;;;;;;;11.58;52.15;100461.79;1803670;79;20999;-62
2021/03/27 08:45:20;;;;;;;35.68;25.85;;;;;;;11.66;51.53;100454.67;1700388;79;21150;-63
2021/03/27 08:48:19;;;;;;;31.65;23.60;;;;;;;11.70;51.45;100453.95;1794882;79;21094;-61
2021/03/27 08:51:07;;;;;;;41.98;27.85;;;;;;;11.75;50.57;100446.01;1755418;79;21391;-61
2021/03/27 08:54:20;;;;;;;40.28;26.27;;;;;;;11.77;50.09;100447.95;1811762;79;21058;-62
2021/03/27 08:57:31;;;;;;;35.55;24.40;;;;;;;11.78;49.91;100440.69;1817185;78;21591;-63
2021/03/27 09:00:27;;;;;;;33.63;26.37;;;;;;;11.76;49.04;100444.14;1816108;79;21090;-62
2021/03/27 09:03:39;;;;;;;40.08;27.67;;;;;;;11.76;49.69;100439.57;1778469;80;21136;-65
2021/03/27 09:06:37;;;;;;;33.13;25.90;;;;;;;11.85;49.88;100442.70;1784314;80;21370;-63
2021/03/27 09:09:38;;;;;;;35.50;24.98;;;;;;;11.94;47.68;100444.51;1783680;79;21058;-61
2021/03/27 09:13:04;;;;;;;32.75;23.52;;;;;;;11.99;46.62;100442.70;1731223;82;21623;-61
2021/03/27 09:16:23;;;;;;;35.80;24.80;;;;;;;12.10;46.59;100452.63;1757286;80;21569;-61
2021/03/27 09:19:25;;;;;;;33.20;21.42;;;;;;;12.21;46.67;100442.33;1742738;80;21161;-62
2021/03/27 09:22:18;;;;;;;33.28;24.77;;;;;;;12.32;46.32;100445.22;1778860;80;21393;-61
2021/03/27 09:25:36;;;;;;;29.72;22.40;;;;;;;12.34;46.20;100447.94;1764682;80;21130;-63
2021/03/27 09:28:43;;;;;;;32.33;22.98;;;;;;;12.30;45.58;100440.05;1780185;80;21169;-63
2021/03/27 09:31:45;;;;;;;43.02;30.97;;;;;;;12.24;45.76;100432.39;1774097;80;21188;-65
2021/03/27 09:35:09;;;;;;;45.78;26.62;;;;;;;12.23;45.81;100440.72;1784046;80;21218;-63
2021/03/27 09:38:16;;;;;;;26.40;19.98;;;;;;;12.30;45.50;100444.63;1782546;80;21206;-63
2021/03/27 09:41:05;;;;;;;26.15;18.23;;;;;;;12.44;42.48;100441.38;1733694;82;21180;-64
2021/03/27 09:44:00;;;;;;;29.18;19.35;;;;;;;12.55;42.84;100442.38;1736219;82;21612;-62
2021/03/27 09:46:50;;;;;;;28.98;20.68;;;;;;;12.58;41.98;100454.84;1710054;82;21147;-64
2021/03/27 09:49:59;;;;;;;30.52;18.62;;;;;;;12.61;42.12;100444.90;1767163;80;21118;-63
2021/03/27 09:53:04;;;;;;;28.45;17.65;;;;;;;12.65;41.88;100456.87;1749301;80;21156;-64
2021/03/27 09:56:00;;;;;;;28.55;19.60;;;;;;;12.69;40.65;100451.79;1768168;80;21097;-66
2021/03/27 09:59:24;;;;;;;33.10;18.40;;;;;;;12.75;41.24;100434.63;1784362;80;21011;-63
2021/03/27 10:01:56;;;;;;;30.23;19.73;;;;;;;12.86;41.82;100447.73;1777476;80;21115;-66
2021/03/27 10:05:03;;;;;;;21.60;15.30;;;;;;;13.02;41.89;100423.95;1776787;80;21766;-65
2021/03/27 10:08:09;;;;;;;27.42;19.70;;;;;;;13.09;40.24;100442.95;1774271;79;21245;-66
2021/03/27 10:10:50;;;;;;;27.98;19.50;;;;;;;13.12;40.24;100434.12;1717425;82;21154;-64
2021/03/27 10:13:46;;;;;;;29.80;19.98;;;;;;;13.16;41.17;100432.55;1765493;80;21141;-64
2021/03/27 10:16:23;;;;;;;25.37;19.70;;;;;;;13.22;41.63;100431.56;1744302;80;21075;-64
2021/03/27 10:19:23;;;;;;;27.17;19.62;;;;;;;13.20;41.39;100436.39;1733473;82;21160;-64
2021/03/27 10:22:17;;;;;;;27.85;20.08;;;;;;;13.14;41.16;100423.34;1694019;82;21665;-62
2021/03/27 10:25:15;;;;;;;27.58;19.48;;;;;;;13.11;41.14;100438.70;1700574;82;21071;-65
2021/03/27 10:27:57;;;;;;;34.53;22.15;;;;;;;13.10;40.75;100440.55;1703428;84;21191;-62
2021/03/27 10:30:50;;;;;;;31.07;21.70;;;;;;;13.05;40.44;100448.57;1706014;82;21673;-63
2021/03/27 10:33:41;;;;;;;23.73;18.27;;;;;;;13.06;40.07;100439.41;1711372;82;21176;-65
2021/03/27 10:36:56;;;;;;;24.18;16.12;;;;;;;13.14;40.12;100437.41;1697683;82;21388;-65
2021/03/27 10:39:38;;;;;;;29.92;20.88;;;;;;;13.26;39.17;100442.15;1732511;82;21216;-65
2021/03/27 10:42:39;;;;;;;24.18;18.30;;;;;;;13.25;39.09;100444.03;1671193;82;21132;-64
2021/03/27 10:45:47;;;;;;;19.27;14.80;;;;;;;13.24;39.02;100428.88;1732314;82;21185;-65
2021/03/27 10:48:49;;;;;;;19.98;15.25;;;;;;;13.24;39.20;100438.87;1733770;82;21319;-65
2021/03/27 10:52:06;;;;;;;25.43;18.48;;;;;;;13.30;39.24;100440.05;1748815;80;21236;-64
2021/03/27 10:55:12;;;;;;;25.40;18.82;;;;;;;13.43;39.04;100428.05;1780036;79;21006;-63
2021/03/27 10:58:19;;;;;;;22.75;15.88;;;;;;;13.63;38.58;100443.72;1777614;80;20996;-64
2021/03/27 11:01:33;;;;;;;28.90;17.07;;;;;;;13.72;38.72;100428.69;1784227;80;21207;-65
2021/03/27 11:04:52;;;;;;;20.15;15.25;;;;;;;13.83;37.84;100428.56;1777795;80;21270;-64
2021/03/27 11:08:01;;;;;;;26.77;18.87;;;;;;;13.81;37.20;100425.84;1783933;80;21616;-65
2021/03/27 11:11:06;;;;;;;22.87;16.23;;;;;;;13.85;37.69;100421.56;1782337;80;21562;-65
2021/03/27 11:14:20;;;;;;;21.73;16.35;;;;;;;13.88;37.11;100439.44;1781330;80;21144;-64
2021/03/27 11:16:57;;;;;;;21.93;15.70;;;;;;;13.92;36.65;100435.16;1738160;82;21214;-63
2021/03/27 11:19:34;;;;;;;23.77;16.57;;;;;;;13.95;36.60;100425.20;1738048;82;21164;-67
2021/03/27 11:22:25;;;;;;;22.85;17.35;;;;;;;14.01;36.57;100417.94;1737979;82;21669;-64
2021/03/27 11:25:41;;;;;;;22.00;16.48;;;;;;;14.09;36.88;100423.44;1738004;82;21613;-64
2021/03/27 11:28:22;;;;;;;23.65;17.17;;;;;;;14.21;36.83;100416.80;1738224;81;21978;-63
2021/03/27 11:31:37;;;;;;;60.60;36.08;;;;;;;14.30;36.18;100417.14;1760714;80;21145;-63
2021/03/27 11:34:25;;;;;;;23.20;17.70;;;;;;;14.22;36.06;100413.02;1778882;80;21613;-65
2021/03/27 11:37:20;;;;;;;21.75;15.98;;;;;;;14.19;36.23;100414.08;1758956;81;22256;-63
2021/03/27 11:40:09;;;;;;;20.30;14.85;;;;;;;14.27;36.09;100405.48;1758769;81;21190;-64
2021/03/27 11:42:54;;;;;;;18.82;15.10;;;;;;;14.39;35.95;100408.33;1758722;81;21207;-64
2021/03/27 11:45:32;;;;;;;21.37;14.75;;;;;;;14.60;36.15;100407.98;1736685;81;21175;-63
2021/03/27 11:48:11;;;;;;;17.60;14.65;;;;;;;14.80;35.11;100409.49;1758774;81;21613;-62
2021/03/27 11:51:00;;;;;;;23.38;16.37;;;;;;;14.97;34.45;100413.92;1759500;80;22247;-63
2021/03/27 11:53:45;;;;;;;19.32;15.05;;;;;;;15.01;34.35;100409.64;1760524;80;21657;-63
2021/03/27 11:56:54;;;;;;;15.15;10.85;;;;;;;14.98;34.02;100411.49;1784687;80;21193;-64
2021/03/27 12:02:46;;;;;;;18.60;13.68;;;;;;;15.07;34.06;100402.61;1714538;82;21159;-62
2021/03/27 12:05:31;;;;;;;16.50;13.08;;;;;;;15.17;33.47;100410.80;1749413;80;21389;-64
2021/03/27 12:08:32;;;;;;;21.25;15.58;;;;;;;15.14;33.13;100412.70;1768270;80;21645;-65
2021/03/27 12:11:31;;;;;;;20.37;15.15;;;;;;;15.00;33.73;100414.77;1785504;80;21117;-64
2021/03/27 12:14:10;;;;;;;20.92;15.30;;;;;;;14.85;34.36;100415.48;1772340;80;21169;-65
2021/03/27 12:16:54;;;;;;;19.85;14.85;;;;;;;14.81;34.39;100413.02;1783285;80;21013;-65
2021/03/27 12:19:56;;;;;;;16.60;13.78;;;;;;;14.81;34.64;100404.89;1783238;80;21614;-64
2021/03/27 12:22:38;;;;;;;19.27;13.95;;;;;;;14.94;34.49;100400.38;1776021;80;21213;-69
2021/03/27 12:25:37;;;;;;;17.85;13.13;;;;;;;15.06;33.63;100392.06;1758515;80;21005;-62
2021/03/27 12:28:23;;;;;;;19.70;13.78;;;;;;;15.07;33.10;100393.13;1764588;80;21210;-65
2021/03/27 12:31:34;;;;;;;21.75;14.75;;;;;;;15.02;33.43;100400.41;1782637;80;21089;-62
2021/03/27 12:34:24;;;;;;;16.48;12.23;;;;;;;15.06;33.55;100400.19;1776179;80;23445;-64
2021/03/27 12:37:21;;;;;;;18.98;13.55;;;;;;;15.17;33.24;100403.21;1781192;80;21595;-64
2021/03/27 12:40:23;;;;;;;18.70;14.38;;;;;;;15.19;33.24;100394.30;1782085;80;21631;-66
2021/03/27 12:43:01;;;;;;;14.78;11.83;;;;;;;15.28;33.30;100398.95;1773901;80;21094;-66
2021/03/27 12:45:34;;;;;;;15.00;12.35;;;;;;;15.46;32.68;100401.73;1771699;80;21534;-70
2021/03/27 12:48:24;;;;;;;;;;;;;;;15.59;32.44;100396.39;1769089;80;21415;-67
2021/03/27 12:51:10;;;;;;;15.68;11.40;;;;;;;15.68;32.34;100384.76;1783093;80;20231;-65
2021/03/27 12:54:19;;;;;;;20.75;15.10;;;;;;;15.80;32.01;100389.14;1771873;80;21123;-65
2021/03/27 12:57:11;;;;;;;17.80;11.03;;;;;;;15.84;31.82;100391.59;1759517;80;21575;-67
2021/03/27 13:00:02;;;;;;;17.10;11.95;;;;;;;15.99;31.04;100395.17;1784860;80;21169;-65
2021/03/27 13:03:01;;;;;;;21.07;9.80;;;;;;;16.16;30.87;100391.41;1778290;80;21221;-65
2021/03/27 13:05:34;;;;;;;14.28;10.82;;;;;;;16.39;30.66;100388.17;1756710;80;21142;-65
2021/03/27 13:08:36;;;;;;;13.88;11.15;;;;;;;16.64;30.18;100396.89;1766276;80;21098;-64
2021/03/27 13:11:45;;;;;;;14.18;10.80;;;;;;;16.75;29.62;100393.88;1784720;80;21034;-64
2021/03/27 13:14:41;;;;;;;14.80;11.08;;;;;;;16.76;29.37;100379.22;1748213;80;21320;-63
2021/03/27 13:17:25;;;;;;;13.65;10.65;;;;;;;16.57;29.51;100384.36;1734411;81;23531;-64
2021/03/27 13:20:17;;;;;;;16.60;10.68;;;;;;;16.49;29.58;100388.99;1716109;83;21148;-64